createdAt,value
2017-08-31T00:00:50.480Z,10.09
2017-08-31T00:02:00.429Z,10.03
2017-08-31T00:03:10.057Z,10.05
2017-08-31T00:04:20.325Z,9.99
2017-08-31T00:05:30.593Z,10.05
2017-08-31T00:06:40.889Z,9.97
2017-08-31T00:07:50.834Z,10.02
2017-08-31T00:09:01.100Z,10.02
2017-08-31T00:10:11.374Z,9.95
2017-08-31T00:11:21.638Z,9.95
2017-08-31T00:12:31.905Z,10.03
2017-08-31T00:13:42.169Z,9.88
2017-08-31T00:14:52.433Z,9.92
2017-08-31T00:16:02.705Z,9.82
2017-08-31T00:17:12.345Z,9.77
2017-08-31T00:18:22.612Z,9.77
2017-08-31T00:19:32.876Z,9.76
2017-08-31T00:20:42.822Z,9.81
2017-08-31T00:21:53.086Z,9.72
2017-08-31T00:23:03.351Z,9.76
2017-08-31T00:24:13.297Z,9.82
2017-08-31T00:25:23.249Z,9.77
2017-08-31T00:26:33.191Z,9.82
2017-08-31T00:27:43.456Z,9.73
2017-08-31T00:28:53.719Z,9.76
2017-08-31T00:30:03.993Z,9.73
2017-08-31T00:31:13.940Z,9.63
2017-08-31T00:32:24.202Z,9.63
2017-08-31T00:33:34.491Z,9.63
2017-08-31T00:34:44.480Z,9.64
2017-08-31T00:35:54.423Z,9.64
2017-08-31T00:37:04.689Z,9.64
2017-08-31T00:38:14.954Z,9.66
2017-08-31T00:39:25.224Z,9.59
2017-08-31T00:40:35.488Z,9.63
2017-08-31T00:41:45.781Z,9.64
2017-08-31T00:42:55.732Z,9.63
2017-08-31T00:44:05.996Z,9.59
2017-08-31T00:45:15.944Z,9.59
2017-08-31T00:46:25.888Z,9.62
2017-08-31T00:47:36.161Z,9.62
2017-08-31T00:48:46.104Z,9.64
2017-08-31T00:49:56.046Z,9.62
2017-08-31T00:51:06.321Z,9.55
2017-08-31T00:52:16.589Z,9.52
2017-08-31T00:53:26.537Z,9.59
2017-08-31T00:54:36.806Z,9.56
2017-08-31T00:55:47.069Z,9.62
2017-08-31T00:56:57.337Z,9.58
2017-08-31T00:58:07.281Z,9.56
2017-08-31T00:59:16.903Z,9.51
2017-08-31T01:00:27.173Z,9.58
2017-08-31T01:01:37.437Z,9.45
2017-08-31T01:02:47.383Z,9.51
2017-08-31T01:03:57.651Z,9.47
2017-08-31T01:05:07.271Z,9.44
2017-08-31T01:06:17.535Z,9.42
2017-08-31T01:07:27.812Z,9.4
2017-08-31T01:08:38.079Z,9.42
2017-08-31T01:09:48.389Z,9.4
2017-08-31T01:10:58.331Z,9.45
2017-08-31T01:12:07.989Z,9.45
2017-08-31T01:13:17.932Z,9.44
2017-08-31T01:14:28.202Z,9.45
2017-08-31T01:15:38.146Z,9.4
2017-08-31T01:16:48.419Z,9.48
2017-08-31T01:17:58.360Z,9.47
2017-08-31T01:19:08.303Z,9.47
2017-08-31T01:20:18.566Z,9.47
2017-08-31T01:21:28.865Z,9.55
2017-08-31T01:22:38.807Z,9.52
2017-08-31T01:23:48.430Z,9.51
2017-08-31T01:24:58.703Z,9.51
2017-08-31T01:26:08.644Z,9.62
2017-08-31T01:27:18.587Z,9.55
2017-08-31T01:28:28.850Z,9.56
2017-08-31T01:29:38.800Z,9.64
2017-08-31T01:30:49.067Z,9.59
2017-08-31T01:31:59.333Z,9.66
2017-08-31T01:33:09.601Z,9.72
2017-08-31T01:34:19.866Z,9.84
2017-08-31T01:35:30.137Z,9.67
2017-08-31T01:36:40.092Z,9.76
2017-08-31T01:37:50.360Z,9.76
2017-08-31T01:38:59.982Z,9.77
2017-08-31T01:40:10.258Z,9.77
2017-08-31T01:41:20.556Z,9.76
2017-08-31T01:42:30.825Z,9.8
2017-08-31T01:43:41.087Z,9.77
2017-08-31T01:44:51.353Z,9.82
2017-08-31T01:46:01.617Z,9.8
2017-08-31T01:47:11.882Z,9.81
2017-08-31T01:48:22.144Z,9.77
2017-08-31T01:49:32.608Z,9.82
2017-08-31T01:50:42.874Z,9.87
2017-08-31T01:51:53.136Z,9.82
2017-08-31T01:53:03.078Z,9.8
2017-08-31T01:54:13.345Z,9.77
2017-08-31T01:55:23.612Z,9.91
2017-08-31T01:56:33.554Z,9.74
2017-08-31T01:57:43.820Z,9.84
2017-08-31T01:58:54.089Z,9.85
2017-08-31T02:00:04.357Z,9.9
2017-08-31T02:01:14.659Z,9.84
2017-08-31T02:02:24.925Z,9.85
2017-08-31T02:03:35.197Z,9.9
2017-08-31T02:04:45.139Z,9.82
2017-08-31T02:05:54.760Z,9.92
2017-08-31T02:07:04.701Z,9.92
2017-08-31T02:08:14.647Z,9.81
2017-08-31T02:09:24.597Z,9.9
2017-08-31T02:10:34.877Z,9.94
2017-08-31T02:11:45.142Z,10.02
2017-08-31T02:12:55.406Z,9.97
2017-08-31T02:14:05.672Z,9.95
2017-08-31T02:15:15.935Z,9.91
2017-08-31T02:16:25.882Z,10
2017-08-31T02:17:35.825Z,9.99
2017-08-31T02:18:46.132Z,9.91
2017-08-31T02:19:55.754Z,9.9
2017-08-31T02:21:06.032Z,10.06
2017-08-31T02:22:16.304Z,9.92
2017-08-31T02:23:26.567Z,9.95
2017-08-31T02:24:36.839Z,10.06
2017-08-31T02:25:47.109Z,10.03
2017-08-31T02:26:57.383Z,9.97
2017-08-31T02:28:07.329Z,10.07
2017-08-31T02:29:17.279Z,10.07
2017-08-31T02:30:27.228Z,9.95
2017-08-31T02:31:36.536Z,10.09
2017-08-31T02:32:46.487Z,9.95
2017-08-31T02:33:56.753Z,9.95
2017-08-31T02:35:07.024Z,9.91
2017-08-31T02:36:17.289Z,9.9
2017-08-31T02:37:27.236Z,9.95
2017-08-31T02:38:37.184Z,9.9
2017-08-31T02:39:47.133Z,9.91
2017-08-31T02:40:57.400Z,9.88
2017-08-31T02:42:07.350Z,9.91
2017-08-31T02:43:17.313Z,9.84
2017-08-31T02:44:27.272Z,9.82
2017-08-31T02:45:37.552Z,9.76
2017-08-31T02:46:47.838Z,9.81
2017-08-31T02:47:57.785Z,9.81
2017-08-31T02:49:08.055Z,9.82
2017-08-31T02:50:17.678Z,9.91
2017-08-31T02:51:27.622Z,9.88
2017-08-31T02:52:37.250Z,9.87
2017-08-31T02:53:47.198Z,9.95
2017-08-31T02:54:57.464Z,9.92
2017-08-31T02:56:07.408Z,9.91
2017-08-31T02:57:17.676Z,9.91
2017-08-31T02:58:27.939Z,9.91
2017-08-31T02:59:38.208Z,9.88
2017-08-31T03:00:48.479Z,9.88
2017-08-31T03:01:58.755Z,9.84
2017-08-31T03:03:09.020Z,9.9
2017-08-31T03:04:18.968Z,9.85
2017-08-31T03:05:29.239Z,9.88
2017-08-31T03:06:39.185Z,9.91
2017-08-31T03:07:49.134Z,9.88
2017-08-31T03:08:59.398Z,9.87
2017-08-31T03:10:09.664Z,9.9
2017-08-31T03:11:19.930Z,9.9
2017-08-31T03:12:29.880Z,9.88
2017-08-31T03:13:40.144Z,9.88
2017-08-31T03:14:50.413Z,9.91
2017-08-31T03:16:00.679Z,9.82
2017-08-31T03:17:10.943Z,10
2017-08-31T03:18:21.212Z,9.94
2017-08-31T03:19:31.479Z,9.95
2017-08-31T03:20:41.745Z,10.02
2017-08-31T03:21:51.377Z,9.94
2017-08-31T03:23:01.648Z,9.99
2017-08-31T03:24:11.606Z,9.97
2017-08-31T03:25:21.869Z,9.97
2017-08-31T03:26:31.816Z,9.99
2017-08-31T03:27:41.762Z,9.95
2017-08-31T03:28:51.703Z,9.99
2017-08-31T03:30:01.967Z,9.82
2017-08-31T03:31:12.241Z,9.88
2017-08-31T03:32:21.865Z,9.97
2017-08-31T03:33:32.140Z,9.95
2017-08-31T03:34:41.764Z,10.03
2017-08-31T03:35:52.029Z,9.99
2017-08-31T03:37:02.300Z,10
2017-08-31T03:38:12.568Z,10.06
2017-08-31T03:39:22.202Z,9.88
2017-08-31T03:40:32.507Z,9.94
2017-08-31T03:41:42.453Z,9.99
2017-08-31T03:42:52.720Z,10.09
2017-08-31T03:44:02.985Z,9.99
2017-08-31T03:45:13.255Z,9.88
2017-08-31T03:46:23.197Z,9.9
2017-08-31T03:47:33.464Z,9.92
2017-08-31T03:48:43.411Z,9.84
2017-08-31T03:49:53.359Z,9.91
2017-08-31T03:51:03.623Z,9.85
2017-08-31T03:52:13.905Z,9.92
2017-08-31T03:53:24.171Z,9.87
2017-08-31T03:54:34.440Z,9.9
2017-08-31T03:55:44.382Z,9.88
2017-08-31T03:56:54.328Z,9.88
2017-08-31T03:58:04.277Z,9.87
2017-08-31T03:59:14.223Z,9.91
2017-08-31T04:00:24.190Z,9.92
2017-08-31T04:01:34.453Z,9.99
2017-08-31T04:02:44.081Z,9.9
2017-08-31T04:03:54.373Z,10
2017-08-31T04:05:04.324Z,9.95
2017-08-31T04:06:14.587Z,9.92
2017-08-31T04:07:24.532Z,9.92
2017-08-31T04:08:34.485Z,10.05
2017-08-31T04:09:44.433Z,9.97
2017-08-31T04:10:54.059Z,10.02
2017-08-31T04:12:04.335Z,10
2017-08-31T04:13:14.609Z,10.03
2017-08-31T04:14:24.555Z,10.02
2017-08-31T04:15:34.497Z,10.06
2017-08-31T04:16:44.121Z,10.05
2017-08-31T04:17:54.389Z,10.1
2017-08-31T04:19:04.664Z,10.13
2017-08-31T04:20:14.933Z,10.17
2017-08-31T04:21:24.891Z,10.05
2017-08-31T04:22:35.155Z,10.05
2017-08-31T04:23:45.431Z,10
2017-08-31T04:24:55.697Z,10.05
2017-08-31T04:26:05.641Z,10.05
2017-08-31T04:27:15.906Z,9.94
2017-08-31T04:28:25.852Z,9.95
2017-08-31T04:29:36.118Z,10.06
2017-08-31T04:30:46.382Z,9.99
2017-08-31T04:31:56.335Z,9.92
2017-08-31T04:33:06.609Z,10.07
2017-08-31T04:34:16.881Z,9.97
2017-08-31T04:35:27.148Z,9.99
2017-08-31T04:36:37.458Z,9.99
2017-08-31T04:37:47.082Z,10.03
2017-08-31T04:38:57.353Z,10.02
2017-08-31T04:40:07.297Z,10.02
2017-08-31T04:41:17.565Z,9.99
2017-08-31T04:42:27.508Z,10.05
2017-08-31T04:43:37.455Z,10.1
2017-08-31T04:44:47.400Z,10.1
2017-08-31T04:45:57.667Z,10.06
2017-08-31T04:47:07.610Z,10.13
2017-08-31T04:48:17.555Z,10.12
2017-08-31T04:49:27.830Z,10.18
2017-08-31T04:50:38.096Z,10.1
2017-08-31T04:51:48.360Z,10.13
2017-08-31T04:52:58.642Z,10.13
2017-08-31T04:54:08.908Z,10.12
2017-08-31T04:55:19.200Z,10.2
2017-08-31T04:56:29.465Z,10.13
2017-08-31T04:57:39.412Z,10.2
2017-08-31T04:58:49.359Z,10.21
2017-08-31T04:59:59.628Z,10.15
2017-08-31T05:01:09.573Z,10.21
2017-08-31T05:02:19.530Z,10.23
2017-08-31T05:03:29.474Z,10.28
2017-08-31T05:04:39.427Z,10.27
2017-08-31T05:05:49.374Z,10.2
2017-08-31T05:06:59.638Z,10.38
2017-08-31T05:08:09.904Z,10.31
2017-08-31T05:09:20.169Z,10.33
2017-08-31T05:10:30.114Z,10.34
2017-08-31T05:11:40.064Z,10.36
2017-08-31T05:12:50.328Z,10.41
2017-08-31T05:14:00.598Z,10.34
2017-08-31T05:15:10.542Z,10.42
2017-08-31T05:16:20.488Z,10.42
2017-08-31T05:17:30.753Z,10.53
2017-08-31T05:18:40.707Z,10.51
2017-08-31T05:19:51.074Z,10.48
2017-08-31T05:21:01.021Z,10.58
2017-08-31T05:22:10.968Z,10.61
2017-08-31T05:23:21.238Z,10.53
2017-08-31T05:24:31.506Z,10.53
2017-08-31T05:25:41.776Z,10.62
2017-08-31T05:26:52.054Z,10.58
2017-08-31T05:28:01.997Z,10.62
2017-08-31T05:29:12.263Z,10.65
2017-08-31T05:30:22.221Z,10.62
2017-08-31T05:31:32.488Z,10.59
2017-08-31T05:32:42.112Z,10.62
2017-08-31T05:33:52.377Z,10.58
2017-08-31T05:35:02.326Z,10.57
2017-08-31T05:36:12.275Z,10.64
2017-08-31T05:37:24.549Z,10.64
2017-08-31T05:38:34.174Z,10.69
2017-08-31T05:39:44.440Z,10.62
2017-08-31T05:40:54.722Z,10.57
2017-08-31T05:42:04.985Z,10.67
2017-08-31T05:43:14.617Z,10.65
2017-08-31T05:44:24.567Z,10.68
2017-08-31T05:45:34.198Z,10.57
2017-08-31T05:46:44.474Z,10.59
2017-08-31T05:47:54.741Z,10.57
2017-08-31T05:49:05.011Z,10.65
2017-08-31T05:50:15.279Z,10.61
2017-08-31T05:51:25.572Z,10.59
2017-08-31T05:52:35.520Z,10.57
2017-08-31T05:53:45.467Z,10.61
2017-08-31T05:54:55.797Z,10.58
2017-08-31T05:56:06.067Z,10.57
2017-08-31T05:57:16.331Z,10.68
2017-08-31T05:58:26.604Z,10.61
2017-08-31T05:59:36.878Z,10.69
2017-08-31T06:00:46.825Z,10.65
2017-08-31T06:01:57.096Z,10.67
2017-08-31T06:03:07.362Z,10.68
2017-08-31T06:04:17.631Z,10.71
2017-08-31T06:05:27.903Z,10.69
2017-08-31T06:06:38.177Z,10.67
2017-08-31T06:07:48.124Z,10.69
2017-08-31T06:08:58.210Z,10.58
2017-08-31T06:10:08.478Z,10.67
2017-08-31T06:11:18.111Z,10.71
2017-08-31T06:12:28.089Z,10.67
2017-08-31T06:13:38.041Z,10.76
2017-08-31T06:14:47.667Z,10.71
2017-08-31T06:15:57.936Z,10.75
2017-08-31T06:17:08.203Z,10.72
2017-08-31T06:18:18.469Z,10.76
2017-08-31T06:19:28.740Z,10.84
2017-08-31T06:20:39.012Z,10.8
2017-08-31T06:21:48.639Z,10.87
2017-08-31T06:22:58.909Z,10.83
2017-08-31T06:24:08.223Z,10.83
2017-08-31T06:25:18.494Z,10.83
2017-08-31T06:26:28.441Z,10.83
2017-08-31T06:27:38.712Z,10.84
2017-08-31T06:28:48.977Z,10.95
2017-08-31T06:29:59.258Z,10.9
2017-08-31T06:31:08.890Z,10.84
2017-08-31T06:32:19.165Z,10.87
2017-08-31T06:33:29.110Z,10.87
2017-08-31T06:34:38.735Z,10.9
2017-08-31T06:35:49.009Z,10.98
2017-08-31T06:36:58.961Z,10.97
2017-08-31T06:38:08.588Z,11.04
2017-08-31T06:39:18.855Z,11
2017-08-31T06:40:28.800Z,11.01
2017-08-31T06:41:38.872Z,11.07
2017-08-31T06:42:48.497Z,11.04
2017-08-31T06:43:58.765Z,11
2017-08-31T06:45:08.710Z,11.02
2017-08-31T06:46:18.979Z,11.02
2017-08-31T06:47:29.247Z,11.02
2017-08-31T06:48:38.550Z,11.01
2017-08-31T06:49:48.820Z,11.1
2017-08-31T06:50:58.445Z,11.07
2017-08-31T06:52:08.715Z,11.13
2017-08-31T06:53:19.287Z,11.02
2017-08-31T06:54:29.233Z,11.04
2017-08-31T06:55:38.864Z,11.07
2017-08-31T06:56:48.490Z,11.04
2017-08-31T06:57:58.754Z,11.04
2017-08-31T06:59:09.030Z,11.02
2017-08-31T07:00:19.297Z,11.05
2017-08-31T07:01:29.240Z,11.04
2017-08-31T07:02:39.191Z,11.04
2017-08-31T07:03:49.478Z,11.07
2017-08-31T07:04:59.751Z,11.16
2017-08-31T07:06:10.025Z,11.04
2017-08-31T07:07:20.298Z,11.12
2017-08-31T07:08:30.573Z,11.12
2017-08-31T07:09:39.881Z,11.13
2017-08-31T07:10:49.826Z,11.2
2017-08-31T07:12:00.096Z,11.26
2017-08-31T07:13:10.365Z,11.18
2017-08-31T07:14:20.312Z,11.23
2017-08-31T07:15:30.580Z,11.27
2017-08-31T07:16:40.557Z,11.25
2017-08-31T07:17:50.833Z,11.19
2017-08-31T07:19:01.113Z,11.23
2017-08-31T07:20:11.381Z,11.4
2017-08-31T07:21:21.656Z,11.38
2017-08-31T07:22:31.601Z,11.4
2017-08-31T07:23:41.872Z,11.53
2017-08-31T07:24:52.137Z,11.52
2017-08-31T07:26:02.091Z,11.58
2017-08-31T07:27:12.361Z,11.65
2017-08-31T07:28:21.986Z,11.63
2017-08-31T07:29:31.945Z,11.62
2017-08-31T07:30:42.215Z,11.63
2017-08-31T07:31:52.480Z,11.62
2017-08-31T07:33:02.449Z,11.63
2017-08-31T07:34:12.725Z,11.62
2017-08-31T07:35:23.022Z,11.65
2017-08-31T07:36:33.292Z,11.59
2017-08-31T07:37:43.260Z,11.59
2017-08-31T07:38:53.534Z,11.62
2017-08-31T07:40:03.480Z,11.56
2017-08-31T07:41:13.759Z,11.65
2017-08-31T07:42:23.716Z,11.6
2017-08-31T07:43:33.670Z,11.62
2017-08-31T07:44:43.945Z,11.6
2017-08-31T07:45:53.891Z,11.65
2017-08-31T07:47:03.839Z,11.65
2017-08-31T07:48:13.464Z,11.65
2017-08-31T07:49:23.731Z,11.55
2017-08-31T07:50:33.676Z,11.6
2017-08-31T07:51:43.303Z,11.63
2017-08-31T07:52:53.568Z,11.63
2017-08-31T07:54:03.838Z,11.65
2017-08-31T07:55:13.793Z,11.62
2017-08-31T07:56:23.738Z,11.65
2017-08-31T07:57:33.687Z,11.77
2017-08-31T07:58:43.640Z,11.78
2017-08-31T07:59:53.910Z,11.81
2017-08-31T08:01:04.179Z,11.88
2017-08-31T08:02:14.136Z,11.89
2017-08-31T08:03:24.410Z,12.07
2017-08-31T08:04:34.688Z,12.02
2017-08-31T08:05:44.313Z,12.02
2017-08-31T08:06:54.258Z,12.05
2017-08-31T08:08:04.601Z,11.96
2017-08-31T08:09:14.550Z,11.93
2017-08-31T08:10:24.821Z,11.91
2017-08-31T08:11:34.767Z,11.89
2017-08-31T08:12:45.032Z,11.93
2017-08-31T08:13:54.663Z,11.97
2017-08-31T08:15:04.942Z,11.91
2017-08-31T08:16:15.214Z,12.03
2017-08-31T08:17:25.483Z,12.02
2017-08-31T08:18:35.108Z,11.99
2017-08-31T08:19:45.088Z,11.99
2017-08-31T08:20:55.357Z,12.07
2017-08-31T08:22:05.650Z,11.99
2017-08-31T08:23:15.595Z,12.03
2017-08-31T08:24:25.896Z,11.95
2017-08-31T08:25:36.173Z,12.12
2017-08-31T08:26:46.129Z,12.12
2017-08-31T08:27:56.074Z,12.14
2017-08-31T08:29:06.340Z,12.17
2017-08-31T08:30:16.610Z,12.12
2017-08-31T08:31:26.879Z,12.17
2017-08-31T08:32:37.148Z,12.39
2017-08-31T08:33:47.113Z,12.44
2017-08-31T08:34:57.382Z,12.5
2017-08-31T08:36:07.662Z,12.53
2017-08-31T08:37:17.616Z,12.47
2017-08-31T08:38:27.885Z,12.5
2017-08-31T08:39:37.838Z,12.39
2017-08-31T08:40:47.783Z,12.53
2017-08-31T08:41:57.411Z,12.47
2017-08-31T08:43:07.688Z,12.5
2017-08-31T08:44:17.957Z,12.51
2017-08-31T08:45:27.267Z,12.51
2017-08-31T08:46:37.541Z,12.44
2017-08-31T08:47:47.809Z,12.53
2017-08-31T08:48:57.442Z,12.54
2017-08-31T08:50:07.392Z,12.5
2017-08-31T08:51:17.669Z,12.5
2017-08-31T08:52:27.616Z,12.66
2017-08-31T08:53:37.895Z,12.68
2017-08-31T08:54:47.845Z,12.68
2017-08-31T08:55:57.472Z,12.68
2017-08-31T08:57:07.429Z,12.7
2017-08-31T08:58:17.384Z,12.7
2017-08-31T08:59:27.009Z,12.66
2017-08-31T09:00:36.965Z,12.68
2017-08-31T09:01:47.233Z,12.81
2017-08-31T09:02:56.876Z,12.88
2017-08-31T09:04:07.146Z,12.94
2017-08-31T09:05:17.421Z,12.81
2017-08-31T09:06:27.369Z,12.87
2017-08-31T09:07:37.318Z,12.87
2017-08-31T09:08:47.266Z,12.98
2017-08-31T09:09:56.572Z,13.08
2017-08-31T09:11:06.849Z,13.13
2017-08-31T09:12:16.797Z,13.24
2017-08-31T09:13:27.322Z,13.28
2017-08-31T09:14:37.593Z,13.19
2017-08-31T09:15:47.868Z,13.19
2017-08-31T09:16:57.814Z,13.26
2017-08-31T09:18:07.778Z,13.26
2017-08-31T09:19:17.411Z,13.33
2017-08-31T09:20:27.685Z,13.39
2017-08-31T09:21:37.630Z,13.47
2017-08-31T09:22:47.580Z,13.64
2017-08-31T09:23:57.854Z,13.75
2017-08-31T09:25:09.584Z,13.78
2017-08-31T09:26:19.535Z,13.87
2017-08-31T09:27:29.167Z,14.03
2017-08-31T09:28:38.794Z,13.95
2017-08-31T09:29:49.067Z,13.85
2017-08-31T09:30:59.341Z,13.94
2017-08-31T09:32:09.291Z,13.97
2017-08-31T09:33:19.241Z,13.86
2017-08-31T09:34:29.191Z,13.8
2017-08-31T09:35:39.460Z,13.76
2017-08-31T09:36:49.086Z,13.78
2017-08-31T09:37:59.364Z,13.8
2017-08-31T09:39:09.314Z,13.71
2017-08-31T09:40:19.585Z,13.5
2017-08-31T09:41:29.856Z,13.52
2017-08-31T09:42:40.125Z,13.54
2017-08-31T09:43:50.397Z,13.62
2017-08-31T09:45:00.673Z,13.6
2017-08-31T09:46:10.963Z,13.62
2017-08-31T09:47:20.911Z,13.65
2017-08-31T09:48:31.182Z,13.71
2017-08-31T09:49:41.131Z,13.67
2017-08-31T09:50:51.402Z,13.61
2017-08-31T09:52:01.674Z,13.75
2017-08-31T09:53:11.624Z,13.76
2017-08-31T09:54:21.579Z,13.86
2017-08-31T09:55:30.886Z,13.87
2017-08-31T09:56:40.563Z,13.97
2017-08-31T09:57:50.839Z,14.04
2017-08-31T09:59:00.792Z,14.19
2017-08-31T10:00:10.746Z,14.12
2017-08-31T10:01:20.377Z,14.08
2017-08-31T10:02:30.656Z,14
2017-08-31T10:03:40.933Z,13.98
2017-08-31T10:04:50.562Z,14.08
2017-08-31T10:06:00.841Z,13.98
2017-08-31T10:07:10.789Z,13.95
2017-08-31T10:08:20.748Z,13.91
2017-08-31T10:09:30.376Z,13.83
2017-08-31T10:10:40.328Z,13.89
2017-08-31T10:11:50.598Z,13.85
2017-08-31T10:13:00.875Z,13.82
2017-08-31T10:14:11.147Z,13.94
2017-08-31T10:15:21.095Z,14.11
2017-08-31T10:16:31.371Z,14.13
2017-08-31T10:17:41.321Z,14.03
2017-08-31T10:18:51.280Z,14.15
2017-08-31T10:20:01.553Z,14.15
2017-08-31T10:21:11.828Z,14.31
2017-08-31T10:22:22.108Z,14.26
2017-08-31T10:23:32.386Z,14.41
2017-08-31T10:24:42.657Z,14.31
2017-08-31T10:25:52.936Z,14.26
2017-08-31T10:27:03.208Z,14.31
2017-08-31T10:28:13.482Z,14.34
2017-08-31T10:29:22.840Z,14.41
2017-08-31T10:30:32.790Z,14.3
2017-08-31T10:31:42.742Z,14.4
2017-08-31T10:32:52.694Z,14.33
2017-08-31T10:34:02.972Z,14.44
2017-08-31T10:35:12.923Z,14.48
2017-08-31T10:36:22.878Z,14.55
2017-08-31T10:37:32.833Z,14.62
2017-08-31T10:38:43.101Z,14.78
2017-08-31T10:39:53.070Z,14.92
2017-08-31T10:41:03.345Z,15
2017-08-31T10:42:13.300Z,14.96
2017-08-31T10:43:23.256Z,15.18
2017-08-31T10:44:33.212Z,15.22
2017-08-31T10:45:42.838Z,15.3
2017-08-31T10:46:52.469Z,15.47
2017-08-31T10:48:02.738Z,15.47
2017-08-31T10:49:13.011Z,15.6
2017-08-31T10:50:23.288Z,15.63
2017-08-31T10:51:33.575Z,15.67
2017-08-31T10:52:43.844Z,15.76
2017-08-31T10:53:53.794Z,15.78
2017-08-31T10:55:04.070Z,15.83
2017-08-31T10:56:14.347Z,15.9
2017-08-31T10:57:24.618Z,15.9
2017-08-31T10:58:34.891Z,15.99
2017-08-31T10:59:44.840Z,16.08
2017-08-31T11:00:55.109Z,16.1
2017-08-31T11:02:05.384Z,16.17
2017-08-31T11:03:15.333Z,16.28
2017-08-31T11:04:25.285Z,16.36
2017-08-31T11:05:34.915Z,16.4
2017-08-31T11:06:44.223Z,16.41
2017-08-31T11:07:54.495Z,16.43
2017-08-31T11:09:04.127Z,16.49
2017-08-31T11:10:14.402Z,16.59
2017-08-31T11:11:24.684Z,16.59
2017-08-31T11:12:34.959Z,16.64
2017-08-31T11:13:44.590Z,16.58
2017-08-31T11:14:54.542Z,16.51
2017-08-31T11:16:04.816Z,16.55
2017-08-31T11:17:15.088Z,16.36
2017-08-31T11:18:25.038Z,16.4
2017-08-31T11:19:35.324Z,16.44
2017-08-31T11:20:45.269Z,16.47
2017-08-31T11:21:55.218Z,16.39
2017-08-31T11:23:05.494Z,16.28
2017-08-31T11:24:15.783Z,16.21
2017-08-31T11:25:25.736Z,16.26
2017-08-31T11:26:36.019Z,16.29
2017-08-31T11:27:46.829Z,16.26
2017-08-31T11:28:57.737Z,16.18
2017-08-31T11:30:08.905Z,16.25
2017-08-31T11:31:19.444Z,16.17
2017-08-31T11:32:29.811Z,16.12
2017-08-31T11:33:40.970Z,16.1
2017-08-31T11:34:51.654Z,16.02
2017-08-31T11:36:02.486Z,16
2017-08-31T11:37:13.368Z,15.92
2017-08-31T11:38:24.063Z,15.98
2017-08-31T11:39:34.329Z,16.05
2017-08-31T11:40:44.605Z,16.16
2017-08-31T11:41:54.875Z,16.08
2017-08-31T11:43:05.151Z,16.05
2017-08-31T11:44:15.432Z,15.98
2017-08-31T11:45:25.384Z,15.96
2017-08-31T11:46:35.653Z,15.96
2017-08-31T11:47:45.629Z,15.87
2017-08-31T11:48:55.910Z,15.84
2017-08-31T11:50:06.183Z,15.81
2017-08-31T11:51:16.130Z,15.73
2017-08-31T11:52:25.758Z,15.7
2017-08-31T11:53:36.035Z,15.69
2017-08-31T11:54:46.350Z,15.8
2017-08-31T11:55:56.627Z,15.69
2017-08-31T11:57:06.897Z,15.69
2017-08-31T11:58:16.526Z,15.76
2017-08-31T11:59:25.512Z,15.72
2017-08-31T12:00:35.139Z,15.7
2017-08-31T12:01:45.411Z,15.78
2017-08-31T12:02:55.039Z,15.7
2017-08-31T12:04:05.310Z,15.76
2017-08-31T12:05:15.580Z,15.75
2017-08-31T12:06:25.854Z,15.75
2017-08-31T12:07:35.808Z,15.7
2017-08-31T12:08:46.127Z,15.72
2017-08-31T12:09:55.764Z,15.63
2017-08-31T12:11:06.038Z,15.73
2017-08-31T12:12:15.995Z,15.78
2017-08-31T12:13:26.268Z,15.78
2017-08-31T12:14:36.222Z,15.7
2017-08-31T12:15:46.509Z,15.75
2017-08-31T12:16:56.792Z,15.78
2017-08-31T12:18:06.739Z,15.78
2017-08-31T12:19:17.013Z,15.73
2017-08-31T12:20:26.975Z,15.78
2017-08-31T12:21:36.603Z,15.78
2017-08-31T12:22:46.870Z,15.75
2017-08-31T12:23:56.820Z,15.7
2017-08-31T12:25:06.771Z,15.81
2017-08-31T12:26:16.726Z,15.9
2017-08-31T12:27:26.682Z,16.05
2017-08-31T12:28:36.634Z,16.03
2017-08-31T12:29:46.908Z,16.09
2017-08-31T12:30:56.862Z,16.24
2017-08-31T12:32:07.131Z,16.18
2017-08-31T12:33:17.406Z,16.1
2017-08-31T12:34:27.673Z,16.18
2017-08-31T12:35:37.634Z,16.31
2017-08-31T12:36:47.588Z,16.37
2017-08-31T12:37:57.857Z,16.43
2017-08-31T12:39:08.131Z,16.47
2017-08-31T12:40:18.080Z,16.49
2017-08-31T12:41:28.385Z,16.61
2017-08-31T12:42:38.652Z,16.66
2017-08-31T12:43:48.921Z,16.55
2017-08-31T12:44:59.191Z,16.64
2017-08-31T12:46:09.146Z,16.74
2017-08-31T12:47:19.093Z,16.59
2017-08-31T12:48:29.042Z,16.64
2017-08-31T12:49:38.991Z,16.61
2017-08-31T12:50:48.940Z,16.59
2017-08-31T12:51:59.219Z,16.51
2017-08-31T12:53:08.844Z,16.54
2017-08-31T12:54:19.166Z,16.61
2017-08-31T12:55:29.442Z,16.49
2017-08-31T12:56:39.398Z,16.61
2017-08-31T12:57:49.030Z,16.72
2017-08-31T12:58:58.980Z,16.61
2017-08-31T13:00:08.934Z,16.69
2017-08-31T13:01:19.201Z,16.8
2017-08-31T13:02:29.160Z,16.61
2017-08-31T13:03:39.109Z,16.73
2017-08-31T13:04:49.067Z,16.68
2017-08-31T13:05:59.016Z,16.76
2017-08-31T13:07:09.290Z,16.76
2017-08-31T13:08:19.241Z,16.73
2017-08-31T13:09:28.870Z,16.77
2017-08-31T13:10:38.853Z,16.73
2017-08-31T13:11:49.130Z,16.77
2017-08-31T13:12:59.404Z,16.76
2017-08-31T13:14:09.033Z,16.73
2017-08-31T13:15:19.305Z,16.69
2017-08-31T13:16:29.584Z,16.62
2017-08-31T13:17:39.533Z,16.73
2017-08-31T13:18:49.810Z,16.64
2017-08-31T13:19:59.761Z,16.65
2017-08-31T13:21:09.721Z,16.57
2017-08-31T13:22:19.670Z,16.68
2017-08-31T13:23:29.617Z,16.59
2017-08-31T13:24:39.888Z,16.54
2017-08-31T13:25:50.159Z,16.43
2017-08-31T13:27:00.111Z,16.4
2017-08-31T13:28:09.736Z,16.37
2017-08-31T13:29:19.694Z,16.29
2017-08-31T13:30:29.642Z,16.25
2017-08-31T13:31:39.272Z,16.13
2017-08-31T13:32:49.221Z,16.21
2017-08-31T13:33:58.857Z,16.16
2017-08-31T13:35:08.809Z,16.09
2017-08-31T13:36:18.763Z,16
2017-08-31T13:37:29.034Z,15.9
2017-08-31T13:38:38.662Z,15.99
2017-08-31T13:39:48.930Z,15.92
2017-08-31T13:40:59.200Z,15.85
2017-08-31T13:42:09.477Z,15.78
2017-08-31T13:43:19.104Z,15.8
2017-08-31T13:44:29.051Z,15.83
2017-08-31T13:45:39.000Z,15.72
2017-08-31T13:46:49.272Z,15.75
2017-08-31T13:47:59.597Z,15.63
2017-08-31T13:49:09.547Z,15.6
2017-08-31T13:50:19.829Z,15.54
2017-08-31T13:51:29.779Z,15.39
2017-08-31T13:52:39.727Z,15.37
2017-08-31T13:53:49.997Z,15.25
2017-08-31T13:55:00.272Z,15.19
2017-08-31T13:56:09.586Z,15.19
2017-08-31T13:57:19.532Z,15.17
2017-08-31T13:58:29.851Z,15.11
2017-08-31T13:59:39.484Z,15.1
2017-08-31T14:00:49.755Z,14.94
2017-08-31T14:01:59.382Z,14.92
2017-08-31T14:03:09.336Z,14.94
2017-08-31T14:04:19.285Z,14.81
2017-08-31T14:05:29.593Z,14.79
2017-08-31T14:06:39.541Z,14.71
2017-08-31T14:07:49.814Z,14.71
2017-08-31T14:09:00.080Z,14.73
2017-08-31T14:10:09.710Z,14.71
2017-08-31T14:11:19.985Z,14.7
2017-08-31T14:12:30.256Z,14.73
2017-08-31T14:13:40.528Z,14.63
2017-08-31T14:14:50.803Z,14.67
2017-08-31T14:16:01.070Z,14.66
2017-08-31T14:17:11.372Z,14.66
2017-08-31T14:18:21.317Z,14.67
2017-08-31T14:19:31.286Z,14.68
2017-08-31T14:20:41.234Z,14.62
2017-08-31T14:21:51.500Z,14.52
2017-08-31T14:23:01.451Z,14.55
2017-08-31T14:24:11.728Z,14.63
2017-08-31T14:25:22.003Z,14.7
2017-08-31T14:26:31.953Z,14.55
2017-08-31T14:27:41.899Z,14.67
2017-08-31T14:28:52.177Z,14.56
2017-08-31T14:30:02.442Z,14.53
2017-08-31T14:31:12.086Z,14.48
2017-08-31T14:32:22.033Z,14.55
2017-08-31T14:33:32.301Z,14.48
2017-08-31T14:34:42.250Z,14.53
2017-08-31T14:35:52.518Z,14.53
2017-08-31T14:37:02.787Z,14.68
2017-08-31T14:38:12.734Z,14.67
2017-08-31T14:39:22.683Z,14.68
2017-08-31T14:40:33.002Z,14.63
2017-08-31T14:41:43.275Z,14.66
2017-08-31T14:42:53.543Z,14.67
2017-08-31T14:44:03.812Z,14.63
2017-08-31T14:45:13.759Z,14.63
2017-08-31T14:46:26.012Z,14.61
2017-08-31T14:47:36.283Z,14.55
2017-08-31T14:48:46.228Z,14.55
2017-08-31T14:49:56.511Z,14.59
2017-08-31T14:51:06.457Z,14.58
2017-08-31T14:52:22.531Z,14.51
2017-08-31T14:53:32.801Z,14.52
2017-08-31T14:54:43.073Z,14.56
2017-08-31T14:55:53.022Z,14.62
2017-08-31T14:57:02.969Z,14.53
2017-08-31T14:58:13.387Z,14.55
2017-08-31T14:59:23.660Z,14.45
2017-08-31T15:00:33.934Z,14.52
2017-08-31T15:01:44.203Z,14.49
2017-08-31T15:02:54.480Z,14.36
2017-08-31T15:04:04.751Z,14.37
2017-08-31T15:05:14.402Z,14.4
2017-08-31T15:06:24.677Z,14.31
2017-08-31T15:07:34.625Z,14.43
2017-08-31T15:08:44.573Z,14.44
2017-08-31T15:09:54.519Z,14.48
2017-08-31T15:11:04.788Z,14.34
2017-08-31T15:12:14.743Z,14.52
2017-08-31T15:13:24.694Z,14.52
2017-08-31T15:14:34.646Z,14.61